createdAt,value
2023-03-01T00:00:20.553Z,89.58
2023-03-01T00:01:20.540Z,89.77
2023-03-01T00:02:20.543Z,90.59
2023-03-01T00:10:20.573Z,90.60
2023-03-01T00:11:20.649Z,89.36
2023-03-01T00:12:20.582Z,89.55
2023-03-01T00:13:20.591Z,89.34
2023-03-01T00:14:20.601Z,88.81
2023-03-01T00:15:20.592Z,88.16
2023-03-01T00:16:20.650Z,89.13
2023-03-01T00:17:20.565Z,88.57
2023-03-01T00:18:20.549Z,88.32
2023-03-01T00:19:20.556Z,89.43
2023-03-01T00:20:20.574Z,89.49
2023-03-01T00:21:20.535Z,89.32
2023-03-01T00:22:20.547Z,89.74
2023-03-01T00:23:20.562Z,89.39
2023-03-01T00:24:20.570Z,88.20
2023-03-01T00:25:20.520Z,89.57
2023-03-01T00:26:20.526Z,89.20
2023-03-01T00:27:20.499Z,88.93
2023-03-01T00:28:20.518Z,89.26
2023-03-01T00:29:20.551Z,87.85
2023-03-01T00:30:20.531Z,89.90
2023-03-01T00:31:20.593Z,88.72
2023-03-01T00:32:20.643Z,88.27
2023-03-01T00:33:20.675Z,89.90
2023-03-01T00:34:20.728Z,89.24
2023-03-01T00:35:20.786Z,91.54
2023-03-01T00:36:20.863Z,89.10
2023-03-01T00:37:20.899Z,86.15
2023-03-01T00:38:20.918Z,89.64
2023-03-01T00:39:20.967Z,87.94
2023-03-01T00:40:21.021Z,88.03
2023-03-01T00:41:21.050Z,87.11
2023-03-01T00:42:21.082Z,89.43
2023-03-01T00:43:21.134Z,88.09
2023-03-01T00:44:21.194Z,88.27
2023-03-01T00:45:21.224Z,88.25
2023-03-01T00:46:21.295Z,89.42
2023-03-01T00:47:21.290Z,87.95
2023-03-01T00:48:21.343Z,87.52
2023-03-01T00:49:21.387Z,86.02
2023-03-01T00:50:21.465Z,86.80
2023-03-01T00:51:21.529Z,85.10
2023-03-01T00:52:21.531Z,86.98
2023-03-01T00:53:21.591Z,85.23
2023-03-01T00:54:21.588Z,87.58
2023-03-01T00:55:21.676Z,87.57
2023-03-01T00:56:21.685Z,88.55
2023-03-01T00:57:21.750Z,86.93
2023-03-01T00:58:21.831Z,87.91
2023-03-01T00:59:21.839Z,86.96
2023-03-01T01:00:21.891Z,86.51
2023-03-01T01:01:21.993Z,87.25
2023-03-01T01:02:21.979Z,86.75
2023-03-01T01:03:22.024Z,85.33
2023-03-01T01:04:22.050Z,84.92
2023-03-01T01:05:22.050Z,86.58
2023-03-01T01:06:22.135Z,85.31
2023-03-01T01:07:22.141Z,86.89
2023-03-01T01:08:22.225Z,88.18
2023-03-01T01:09:22.221Z,84.55
2023-03-01T01:10:22.260Z,85.88
2023-03-01T01:11:22.334Z,85.40
2023-03-01T01:12:22.356Z,84.21
2023-03-01T01:13:22.389Z,84.67
2023-03-01T01:14:22.443Z,85.59
2023-03-01T01:15:22.497Z,84.97
2023-03-01T01:16:22.510Z,84.14
2023-03-01T01:17:22.571Z,85.10
2023-03-01T01:18:22.578Z,84.84
2023-03-01T01:19:22.641Z,86.43
2023-03-01T01:20:22.692Z,84.50
2023-03-01T01:21:22.728Z,86.39
2023-03-01T01:22:22.738Z,85.55
2023-03-01T01:23:22.769Z,85.16
2023-03-01T01:24:22.886Z,85.27
2023-03-01T01:25:22.902Z,85.18
2023-03-01T01:26:22.929Z,83.97
2023-03-01T01:27:22.964Z,84.62
2023-03-01T01:28:23.010Z,84.55
2023-03-01T01:29:23.017Z,83.18
2023-03-01T01:30:23.081Z,84.27
2023-03-01T01:31:23.152Z,84.19
2023-03-01T01:32:24.468Z,83.09
2023-03-01T01:33:23.231Z,87.20
2023-03-01T01:34:23.365Z,84.88
2023-03-01T01:35:23.406Z,84.62
2023-03-01T01:36:23.337Z,82.36
2023-03-01T01:37:23.361Z,84.23
2023-03-01T01:38:23.413Z,84.56
2023-03-01T01:39:23.440Z,81.63
2023-03-01T01:40:23.504Z,83.85
2023-03-01T01:41:23.500Z,83.30
2023-03-01T01:42:23.560Z,83.30
2023-03-01T01:43:23.593Z,83.92
2023-03-01T01:44:23.637Z,82.80
2023-03-01T01:45:23.671Z,84.14
2023-03-01T01:46:23.784Z,82.14
2023-03-01T01:47:23.750Z,82.98
2023-03-01T01:50:23.848Z,80.56
2023-03-01T01:51:23.922Z,82.21
2023-03-01T01:52:23.932Z,82.89
2023-03-01T01:53:23.981Z,83.39
2023-03-01T01:54:24.016Z,84.55
2023-03-01T01:55:24.081Z,82.33
2023-03-01T01:56:24.089Z,81.38
2023-03-01T01:57:24.133Z,83.79
2023-03-01T01:58:24.176Z,82.75
2023-03-01T01:59:24.210Z,80.00
2023-03-01T02:00:24.256Z,83.27
2023-03-01T02:01:24.306Z,81.07
2023-03-01T02:02:24.460Z,81.30
2023-03-01T02:03:24.498Z,81.99
2023-03-01T02:04:24.420Z,82.51
2023-03-01T02:05:24.465Z,81.01
2023-03-01T02:06:24.481Z,82.31
2023-03-01T02:07:24.583Z,81.42
2023-03-01T02:08:24.553Z,84.53
2023-03-01T02:09:24.633Z,83.07
2023-03-01T02:10:24.624Z,81.56
2023-03-01T02:11:24.650Z,81.50
2023-03-01T02:12:24.689Z,81.60
2023-03-01T02:13:24.744Z,82.21
2023-03-01T02:14:24.783Z,82.39
2023-03-01T02:15:24.796Z,80.90
2023-03-01T02:16:24.909Z,84.27
2023-03-01T02:17:24.847Z,81.01
2023-03-01T02:18:24.871Z,82.99
2023-03-01T02:19:24.895Z,82.65
2023-03-01T02:20:24.943Z,82.41
2023-03-01T02:21:24.966Z,80.59
2023-03-01T02:22:25.016Z,84.65
2023-03-01T02:23:24.994Z,83.27
2023-03-01T02:24:25.049Z,81.98
2023-03-01T02:25:25.085Z,83.40
2023-03-01T02:26:25.084Z,84.76
2023-03-01T02:27:25.105Z,83.08
2023-03-01T02:28:25.143Z,83.41
2023-03-01T02:29:25.189Z,81.56
2023-03-01T02:30:25.158Z,82.29
2023-03-01T02:31:25.247Z,84.79
2023-03-01T02:32:25.225Z,83.82
2023-03-01T02:33:25.193Z,83.45
2023-03-01T02:34:25.243Z,85.55
2023-03-01T02:35:25.277Z,85.70
2023-03-01T02:36:25.314Z,85.62
2023-03-01T02:37:25.496Z,84.74
2023-03-01T02:38:25.444Z,85.10
2023-03-01T02:39:25.524Z,86.46
2023-03-01T02:40:25.545Z,86.17
2023-03-01T02:41:25.620Z,86.77
2023-03-01T02:42:27.284Z,87.33
2023-03-01T02:43:25.705Z,87.31
2023-03-01T02:44:25.768Z,88.49
2023-03-01T02:45:25.842Z,88.11
2023-03-01T02:46:25.907Z,89.96
2023-03-01T02:47:25.897Z,90.71
2023-03-01T02:48:25.953Z,88.14
2023-03-01T02:49:26.023Z,89.47
2023-03-01T02:50:26.152Z,88.95
2023-03-01T02:51:26.072Z,90.33
2023-03-01T02:52:26.115Z,90.37
2023-03-01T02:53:26.153Z,89.91
2023-03-01T02:54:26.222Z,90.15
2023-03-01T02:55:26.256Z,91.49
2023-03-01T02:56:26.285Z,90.18
2023-03-01T02:57:26.337Z,90.69
2023-03-01T02:58:26.301Z,90.35
2023-03-01T02:59:26.306Z,90.47
2023-03-01T03:00:26.417Z,90.41
2023-03-01T03:01:26.310Z,88.32
2023-03-01T03:02:26.320Z,91.52
2023-03-01T03:03:26.332Z,92.02
2023-03-01T03:04:26.296Z,91.32
2023-03-01T03:05:26.319Z,90.66
2023-03-01T03:06:26.359Z,89.65
2023-03-01T03:07:26.318Z,90.42
2023-03-01T03:08:26.390Z,91.11
2023-03-01T03:09:26.302Z,92.08
2023-03-01T03:10:26.358Z,90.42
2023-03-01T03:11:26.355Z,91.06
2023-03-01T03:12:26.366Z,92.11
2023-03-01T03:13:26.442Z,91.46
2023-03-01T03:14:26.443Z,91.61
2023-03-01T03:15:26.484Z,91.81
2023-03-01T03:16:26.557Z,91.29
2023-03-01T03:17:26.547Z,92.62
2023-03-01T03:18:26.561Z,91.07
2023-03-01T03:19:26.607Z,92.14
2023-03-01T03:20:26.637Z,92.52
2023-03-01T03:21:26.652Z,93.95
2023-03-01T03:22:26.691Z,92.08
2023-03-01T03:23:26.766Z,91.31
2023-03-01T03:24:26.750Z,93.67
2023-03-01T03:25:26.804Z,91.77
2023-03-01T03:26:26.877Z,93.39
2023-03-01T03:27:26.896Z,93.39
2023-03-01T03:28:26.914Z,91.61
2023-03-01T03:29:26.952Z,93.07
2023-03-01T03:30:26.969Z,92.48
2023-03-01T03:31:26.994Z,92.45
2023-03-01T03:32:27.047Z,92.46
2023-03-01T03:33:27.025Z,93.22
2023-03-01T03:34:27.057Z,93.96
2023-03-01T03:35:27.109Z,92.28
2023-03-01T03:36:27.097Z,92.91
2023-03-01T03:37:27.129Z,92.77
2023-03-01T03:38:27.167Z,94.04
2023-03-01T03:39:27.265Z,92.44
2023-03-01T03:40:27.201Z,92.34
2023-03-01T03:41:27.242Z,93.07
2023-03-01T03:42:27.247Z,92.66
2023-03-01T03:43:27.289Z,93.31
2023-03-01T03:44:27.289Z,93.03
2023-03-01T03:45:27.375Z,92.60
2023-03-01T03:46:27.339Z,92.93
2023-03-01T03:47:27.363Z,91.19
2023-03-01T03:48:27.348Z,93.13
2023-03-01T03:49:27.412Z,94.07
2023-03-01T03:50:27.437Z,92.66
2023-03-01T03:51:27.443Z,94.45
2023-03-01T03:52:27.471Z,93.91
2023-03-01T03:53:27.450Z,92.39
2023-03-01T03:54:27.485Z,94.25
2023-03-01T03:55:27.496Z,93.91
2023-03-01T03:56:28.726Z,93.01
2023-03-01T03:57:27.527Z,92.68
2023-03-01T03:58:27.530Z,92.09
2023-03-01T03:59:27.528Z,92.68
2023-03-01T04:00:27.655Z,92.27
2023-03-01T04:01:27.619Z,93.58
2023-03-01T04:02:27.659Z,93.20
2023-03-01T04:03:27.641Z,92.18
2023-03-01T04:04:27.721Z,93.83
2023-03-01T04:05:27.783Z,92.62
2023-03-01T04:06:27.854Z,93.31
2023-03-01T04:07:27.893Z,93.40
2023-03-01T04:08:27.984Z,92.84
2023-03-01T04:09:28.038Z,93.49
2023-03-01T04:10:28.080Z,91.81
2023-03-01T04:11:28.116Z,94.24
2023-03-01T04:12:28.091Z,92.89
2023-03-01T04:13:28.105Z,91.31
2023-03-01T04:14:28.114Z,94.22
2023-03-01T04:15:28.159Z,93.48
2023-03-01T04:16:28.209Z,93.01
2023-03-01T04:17:28.177Z,94.51
2023-03-01T04:18:28.155Z,91.79
2023-03-01T04:19:28.193Z,93.32
2023-03-01T04:20:28.173Z,88.07
2023-03-01T04:21:28.170Z,90.32
2023-03-01T04:22:28.213Z,90.89
2023-03-01T04:23:28.168Z,91.75
2023-03-01T04:24:28.189Z,90.48
2023-03-01T04:25:28.231Z,90.98
2023-03-01T04:26:28.347Z,92.04
2023-03-01T04:27:28.337Z,90.47
2023-03-01T04:28:28.381Z,89.62
2023-03-01T04:29:28.435Z,90.72
2023-03-01T04:30:28.490Z,91.75
2023-03-01T04:31:28.600Z,91.87
2023-03-01T04:32:28.635Z,90.02
2023-03-01T04:33:28.633Z,92.16
2023-03-01T04:34:28.665Z,91.35
2023-03-01T04:35:28.732Z,91.94
2023-03-01T04:36:28.985Z,91.31
2023-03-01T04:37:28.660Z,86.92
2023-03-01T04:38:28.667Z,90.78
2023-03-01T04:39:28.691Z,89.72
2023-03-01T04:40:28.788Z,89.38
2023-03-01T04:41:28.837Z,94.07
2023-03-01T04:42:28.853Z,88.12
2023-03-01T04:43:28.842Z,88.88
2023-03-01T04:44:28.867Z,89.17
2023-03-01T04:45:28.909Z,90.38
2023-03-01T04:46:29.536Z,88.12
2023-03-01T04:47:29.028Z,90.08
2023-03-01T04:48:29.096Z,91.45
2023-03-01T04:49:29.105Z,88.35
2023-03-01T04:50:29.205Z,88.89
2023-03-01T04:51:29.291Z,89.92
2023-03-01T04:52:29.299Z,89.38
2023-03-01T04:53:29.344Z,90.67
2023-03-01T04:54:29.412Z,88.36
2023-03-01T04:55:29.467Z,88.88
2023-03-01T04:56:29.858Z,88.31
2023-03-01T04:57:29.580Z,90.70
2023-03-01T04:58:29.627Z,87.77
2023-03-01T04:59:29.676Z,89.01
2023-03-01T05:00:29.716Z,87.41
2023-03-01T05:01:29.756Z,89.14
2023-03-01T05:02:29.876Z,88.69
2023-03-01T05:03:29.910Z,88.83
2023-03-01T05:04:29.973Z,89.47
2023-03-01T05:05:29.988Z,87.78
2023-03-01T05:06:30.352Z,85.52
2023-03-01T05:07:30.142Z,89.42
2023-03-01T05:08:30.157Z,86.01
2023-03-01T05:09:30.231Z,87.72
2023-03-01T05:10:30.275Z,86.80
2023-03-01T05:11:30.395Z,88.76
2023-03-01T05:12:30.396Z,86.43
2023-03-01T05:13:30.458Z,84.73
2023-03-01T05:14:30.552Z,88.98
2023-03-01T05:15:30.692Z,86.29
2023-03-01T05:16:31.096Z,88.92
2023-03-01T05:17:30.739Z,86.87
2023-03-01T05:18:30.788Z,85.32
2023-03-01T05:19:30.880Z,86.83
2023-03-01T05:20:30.977Z,87.24
2023-03-01T05:21:30.996Z,85.97
2023-03-01T05:22:31.044Z,85.30
2023-03-01T05:23:31.110Z,83.98
2023-03-01T05:24:31.163Z,85.88
2023-03-01T05:25:31.246Z,84.97
2023-03-01T05:26:31.318Z,85.90
2023-03-01T05:27:31.358Z,84.61
2023-03-01T05:28:31.433Z,85.99
2023-03-01T05:29:31.472Z,85.65
2023-03-01T05:30:31.551Z,84.66
2023-03-01T05:31:31.889Z,82.66
2023-03-01T05:32:31.695Z,84.51
2023-03-01T05:33:31.748Z,84.54
2023-03-01T05:34:31.789Z,84.98
2023-03-01T05:35:31.850Z,84.18
2023-03-01T05:36:32.547Z,84.38
2023-03-01T05:37:31.951Z,82.83
2023-03-01T05:38:32.008Z,84.64
2023-03-01T05:39:32.109Z,85.70
2023-03-01T05:40:32.157Z,81.80
2023-03-01T05:41:32.237Z,82.86
2023-03-01T05:42:32.265Z,81.85
2023-03-01T05:43:32.335Z,82.85
2023-03-01T05:44:32.402Z,83.95
2023-03-01T05:45:32.476Z,83.93
2023-03-01T05:46:32.834Z,83.95
2023-03-01T05:47:32.564Z,83.53
2023-03-01T05:48:32.634Z,82.37
2023-03-01T05:49:32.732Z,83.12
2023-03-01T05:50:32.774Z,83.21
2023-03-01T05:51:32.833Z,81.56
2023-03-01T05:52:32.907Z,84.60
2023-03-01T05:53:32.934Z,81.75
2023-03-01T05:54:32.996Z,83.69
2023-03-01T05:55:33.054Z,82.00
2023-03-01T05:56:33.260Z,83.42
2023-03-01T05:57:33.195Z,81.84
2023-03-01T05:58:33.246Z,82.19
2023-03-01T05:59:33.325Z,83.19
2023-03-01T06:00:33.354Z,81.02
2023-03-01T06:01:40.509Z,81.86
2023-03-01T06:02:33.441Z,82.27
2023-03-01T06:03:33.387Z,82.70
2023-03-01T06:04:33.454Z,81.57
2023-03-01T06:05:33.426Z,82.37
2023-03-01T06:06:33.697Z,80.52
2023-03-01T06:07:33.490Z,77.96
2023-03-01T06:08:33.358Z,78.90
2023-03-01T06:09:33.368Z,79.36
2023-03-01T06:10:33.377Z,79.77
2023-03-01T06:11:33.344Z,78.58
2023-03-01T06:12:33.334Z,77.06
2023-03-01T06:13:33.346Z,75.48
2023-03-01T06:14:33.326Z,76.69
2023-03-01T06:15:33.345Z,253.96
2023-03-01T06:16:33.563Z,224.18
2023-03-01T06:17:33.314Z,191.96
2023-03-01T06:18:33.289Z,192.23
2023-03-01T06:19:33.286Z,195.44
2023-03-01T06:20:33.256Z,185.71
2023-03-01T06:21:33.262Z,177.93
2023-03-01T06:22:33.267Z,171.74
2023-03-01T06:23:33.253Z,168.67
2023-03-01T06:24:33.258Z,163.90
2023-03-01T06:25:33.262Z,162.24
2023-03-01T06:26:33.501Z,158.74
2023-03-01T06:27:33.248Z,155.77
2023-03-01T06:28:33.238Z,153.39
2023-03-01T06:29:33.269Z,151.35
2023-03-01T06:30:33.338Z,150.05
2023-03-01T06:31:33.420Z,148.58
2023-03-01T06:32:33.532Z,146.38
2023-03-01T06:33:33.498Z,145.24
2023-03-01T06:34:33.539Z,143.73
2023-03-01T06:35:33.616Z,141.62
2023-03-01T06:36:33.680Z,136.58
2023-03-01T06:37:34.034Z,134.32
2023-03-01T06:38:33.696Z,132.16
2023-03-01T06:39:33.739Z,130.13
2023-03-01T06:40:33.797Z,126.48
2023-03-01T06:41:33.784Z,119.20
2023-03-01T06:42:34.044Z,113.91
2023-03-01T06:43:33.939Z,109.99
2023-03-01T06:44:33.966Z,108.21
2023-03-01T06:45:36.039Z,107.84
2023-03-01T06:47:34.534Z,112.04
2023-03-01T06:48:34.077Z,112.83
2023-03-01T06:49:35.033Z,114.51
2023-03-01T06:50:34.167Z,115.24
2023-03-01T06:51:34.199Z,119.59
2023-03-01T06:52:34.058Z,124.46
2023-03-01T06:53:34.116Z,125.67
2023-03-01T06:54:34.047Z,130.16
2023-03-01T06:55:34.032Z,131.52
2023-03-01T06:56:34.362Z,134.13
2023-03-01T06:57:34.032Z,137.65
2023-03-01T06:58:33.986Z,140.90
2023-03-01T06:59:34.002Z,139.10
2023-03-01T07:00:33.976Z,144.51
2023-03-01T07:01:34.004Z,144.54
2023-03-01T07:02:34.022Z,154.47
2023-03-01T07:03:33.957Z,156.97
2023-03-01T07:04:33.963Z,161.23
2023-03-01T07:05:33.981Z,168.00
2023-03-01T07:06:33.965Z,169.57
2023-03-01T07:07:34.171Z,178.60
2023-03-01T07:08:33.941Z,178.71
2023-03-01T07:09:33.969Z,191.35
2023-03-01T07:10:33.898Z,190.85
2023-03-01T07:11:33.901Z,195.54
2023-03-01T07:12:33.933Z,200.08
2023-03-01T07:13:33.894Z,202.00
2023-03-01T07:14:33.891Z,208.20
2023-03-01T07:15:33.883Z,210.12
2023-03-01T07:16:34.561Z,216.33
2023-03-01T07:17:33.848Z,222.54
2023-03-01T07:18:33.904Z,225.57
2023-03-01T07:19:33.827Z,229.16
2023-03-01T07:20:33.875Z,229.39
2023-03-01T07:21:33.839Z,235.66
2023-03-01T07:22:33.847Z,238.78
2023-03-01T07:23:34.117Z,240.56
2023-03-01T07:24:33.857Z,247.87
2023-03-01T07:25:33.900Z,248.80
2023-03-01T07:26:33.879Z,248.24
2023-03-01T07:27:33.913Z,249.29
2023-03-01T07:28:34.139Z,248.67
2023-03-01T07:29:33.976Z,247.30
2023-03-01T07:30:34.024Z,249.07
2023-03-01T07:31:34.023Z,249.10
2023-03-01T07:32:34.136Z,250.00
2023-03-01T07:33:34.074Z,249.46
2023-03-01T07:34:34.064Z,249.18
2023-03-01T07:35:34.174Z,248.72
2023-03-01T07:36:34.119Z,249.38
2023-03-01T07:37:34.136Z,250.00
2023-03-01T07:38:34.623Z,163.09
2023-03-01T07:39:34.170Z,87.84
2023-03-01T07:40:34.209Z,65.97
2023-03-01T07:41:34.273Z,57.09
2023-03-01T07:42:34.321Z,89.07
2023-03-01T07:43:34.579Z,49.04
2023-03-01T07:44:34.445Z,38.04
2023-03-01T07:45:34.546Z,31.74
2023-03-01T07:46:34.512Z,22.46
2023-03-01T07:47:34.582Z,1.48
2023-03-01T07:48:34.630Z,16.48
2023-03-01T07:49:34.553Z,26.49
2023-03-01T07:50:34.558Z,34.08
2023-03-01T07:51:34.613Z,43.08
2023-03-01T07:52:34.653Z,55.89
2023-03-01T07:53:35.149Z,68.74
2023-03-01T07:54:34.775Z,59.92
2023-03-01T07:55:34.827Z,63.38
2023-03-01T07:56:34.874Z,63.54
2023-03-01T07:57:34.942Z,63.21
2023-03-01T07:58:35.165Z,49.56
2023-03-01T07:59:35.028Z,51.19
2023-03-01T08:00:35.057Z,59.15
2023-03-01T08:01:35.136Z,54.13
2023-03-01T08:02:35.183Z,48.77
2023-03-01T08:03:35.193Z,56.26
2023-03-01T08:04:35.227Z,54.54
2023-03-01T08:05:35.299Z,45.60
2023-03-01T08:06:35.332Z,32.80
2023-03-01T08:07:35.398Z,40.02
2023-03-01T08:08:35.647Z,48.71
2023-03-01T08:09:35.458Z,47.27
2023-03-01T08:10:35.488Z,46.74
2023-03-01T08:11:35.574Z,39.57
2023-03-01T08:12:35.562Z,44.50
2023-03-01T08:13:35.612Z,44.55
2023-03-01T08:14:35.627Z,45.62
2023-03-01T08:15:35.639Z,47.19
2023-03-01T08:16:35.732Z,52.16
2023-03-01T08:17:35.735Z,52.88
2023-03-01T08:18:35.798Z,54.45
2023-03-01T08:19:35.815Z,53.25
2023-03-01T08:20:35.813Z,55.14
2023-03-01T08:21:35.877Z,54.75
2023-03-01T08:22:35.938Z,53.73
2023-03-01T08:23:35.934Z,53.10
2023-03-01T08:24:35.939Z,50.16
2023-03-01T08:25:35.968Z,43.85
2023-03-01T08:26:36.069Z,48.10
2023-03-01T08:27:36.080Z,47.97
2023-03-01T08:28:36.116Z,44.82
2023-03-01T08:29:36.116Z,44.26
2023-03-01T08:30:36.141Z,43.62
2023-03-01T08:31:36.286Z,37.62
2023-03-01T08:32:36.237Z,41.79
2023-03-01T08:33:36.202Z,25.00
2023-03-01T08:34:36.279Z,25.01
2023-03-01T08:35:36.355Z,34.30
2023-03-01T08:36:36.313Z,39.92
2023-03-01T08:37:36.313Z,47.99
2023-03-01T08:38:36.352Z,50.29
2023-03-01T08:39:36.425Z,49.72
2023-03-01T08:40:36.412Z,53.05
2023-03-01T08:41:36.427Z,48.25
2023-03-01T08:42:36.488Z,57.64
2023-03-01T08:43:36.486Z,59.38
2023-03-01T08:44:36.540Z,63.99
2023-03-01T08:45:36.632Z,64.32
2023-03-01T08:46:36.654Z,69.34
2023-03-01T08:47:36.750Z,71.29
2023-03-01T08:48:36.784Z,72.69
2023-03-01T08:49:36.828Z,77.06
2023-03-01T08:50:36.875Z,75.28
2023-03-01T08:51:36.949Z,76.31
2023-03-01T08:52:36.985Z,79.19
2023-03-01T08:53:37.021Z,78.52
2023-03-01T08:54:37.067Z,76.60
2023-03-01T08:55:37.105Z,78.23
2023-03-01T08:56:37.132Z,80.28
2023-03-01T08:57:37.216Z,80.67
2023-03-01T08:58:37.243Z,81.35
2023-03-01T08:59:37.308Z,82.60
2023-03-01T09:00:37.308Z,81.45
2023-03-01T09:01:37.334Z,85.51
2023-03-01T09:02:37.445Z,85.50
2023-03-01T09:03:37.387Z,87.08
2023-03-01T09:04:37.446Z,88.32
2023-03-01T09:05:37.461Z,86.98
2023-03-01T09:06:37.488Z,88.50
2023-03-01T09:07:37.482Z,89.46
2023-03-01T09:08:37.538Z,91.72
2023-03-01T09:09:37.531Z,90.46
2023-03-01T09:10:37.561Z,96.12
2023-03-01T09:11:37.598Z,110.74
2023-03-01T09:12:37.574Z,120.49
2023-03-01T09:13:37.613Z,123.74
2023-03-01T09:14:37.610Z,127.23
2023-03-01T09:15:37.632Z,133.10
2023-03-01T09:16:37.722Z,137.86
2023-03-01T09:17:37.661Z,142.63
2023-03-01T09:18:37.704Z,152.36
2023-03-01T09:19:37.683Z,149.33
2023-03-01T09:20:37.673Z,150.03
2023-03-01T09:21:40.927Z,153.90
2023-03-01T09:22:37.669Z,153.40
2023-03-01T09:23:37.733Z,154.71
2023-03-01T09:24:37.695Z,154.07
2023-03-01T09:25:37.678Z,154.10
2023-03-01T09:26:37.652Z,155.47
2023-03-01T09:27:37.627Z,154.87
2023-03-01T09:28:37.646Z,156.06
2023-03-01T09:30:37.655Z,155.85
2023-03-01T09:31:37.657Z,154.68
2023-03-01T09:32:37.602Z,154.35
2023-03-01T09:33:38.170Z,152.66
2023-03-01T09:34:37.609Z,152.35
2023-03-01T09:35:37.639Z,151.35
2023-03-01T09:36:37.580Z,152.10
2023-03-01T09:37:37.633Z,151.25
2023-03-01T09:38:37.556Z,149.59
2023-03-01T09:39:37.672Z,149.21
2023-03-01T09:40:37.608Z,151.26
2023-03-01T09:41:37.576Z,150.00
2023-03-01T09:42:37.565Z,150.15
2023-03-01T09:43:37.581Z,150.59
2023-03-01T09:44:37.633Z,148.23
2023-03-01T09:45:37.534Z,145.58
2023-03-01T09:46:37.670Z,144.60
2023-03-01T09:47:37.559Z,140.02
2023-03-01T09:48:37.496Z,143.23
2023-03-01T09:49:37.564Z,142.47
2023-03-01T09:50:37.496Z,140.79
2023-03-01T09:51:37.485Z,143.86
2023-03-01T09:52:37.495Z,148.75
2023-03-01T09:53:37.481Z,149.51
2023-03-01T09:54:37.443Z,157.45
2023-03-01T09:55:37.512Z,154.87
2023-03-01T09:56:37.458Z,154.53
2023-03-01T09:57:37.502Z,155.79
2023-03-01T09:58:37.432Z,146.53
2023-03-01T09:59:37.650Z,131.95
2023-03-01T10:00:38.398Z,128.14
2023-03-01T10:01:37.394Z,110.00
2023-03-01T10:02:37.446Z,42.95
2023-03-01T10:03:37.449Z,0.00
2023-03-01T10:04:37.899Z,0.00
2023-03-01T10:05:37.416Z,0.00
2023-03-01T10:06:37.407Z,0.00
2023-03-01T10:07:37.366Z,0.00
2023-03-01T10:08:37.523Z,0.00
2023-03-01T10:09:37.418Z,10.84
2023-03-01T10:10:37.425Z,25.00
2023-03-01T10:11:37.813Z,24.18
2023-03-01T10:12:37.530Z,25.00
2023-03-01T10:13:37.576Z,25.00
2023-03-01T10:14:37.635Z,19.06
2023-03-01T10:15:37.705Z,24.45
2023-03-01T10:16:37.741Z,32.92
2023-03-01T10:17:37.809Z,42.88
2023-03-01T10:18:37.859Z,50.81
2023-03-01T10:19:38.181Z,60.06
2023-03-01T10:20:37.982Z,68.10
2023-03-01T10:21:38.012Z,59.83
2023-03-01T10:22:38.065Z,45.46
2023-03-01T10:23:38.259Z,37.08
2023-03-01T10:24:38.757Z,25.41
2023-03-01T10:25:38.247Z,24.37
2023-03-01T10:26:38.266Z,23.78
2023-03-01T10:27:38.342Z,22.04
2023-03-01T10:30:38.506Z,59.64
2023-03-01T10:31:38.665Z,61.92
2023-03-01T10:32:38.732Z,55.54
2023-03-01T10:33:38.711Z,52.92
2023-03-01T10:34:38.785Z,35.18
2023-03-01T10:35:38.856Z,45.85
2023-03-01T10:36:38.912Z,51.83
2023-03-01T10:37:38.969Z,70.91
2023-03-01T10:38:39.042Z,68.91
2023-03-01T10:39:39.096Z,68.31
2023-03-01T10:40:39.646Z,65.41
2023-03-01T10:41:39.179Z,74.09
2023-03-01T10:42:39.232Z,85.56
2023-03-01T10:43:39.259Z,93.16
2023-03-01T10:44:39.298Z,97.25
2023-03-01T10:45:39.355Z,84.67
2023-03-01T10:46:39.419Z,75.17
2023-03-01T10:47:39.423Z,83.25
2023-03-01T10:48:39.448Z,93.03
2023-03-01T10:49:39.422Z,80.19
2023-03-01T10:50:41.886Z,82.57
2023-03-01T10:51:39.386Z,94.79
2023-03-01T10:52:39.439Z,72.41
2023-03-01T10:53:39.396Z,41.58
2023-03-01T10:54:39.660Z,36.17
2023-03-01T10:55:39.424Z,44.71
2023-03-01T10:56:39.402Z,72.07
2023-03-01T10:57:42.322Z,84.05
2023-03-01T10:58:39.371Z,84.47
2023-03-01T10:59:39.420Z,86.64
2023-03-01T11:00:39.352Z,90.64
2023-03-01T11:01:39.394Z,97.73
2023-03-01T11:02:39.368Z,98.63
2023-03-01T11:03:39.315Z,92.01
2023-03-01T11:04:40.281Z,104.10
2023-03-01T11:05:39.341Z,107.22
2023-03-01T11:06:39.286Z,107.97
2023-03-01T11:07:39.287Z,111.66
2023-03-01T11:08:39.291Z,113.74
2023-03-01T11:09:39.270Z,113.63
2023-03-01T11:10:39.258Z,116.74
2023-03-01T11:11:39.275Z,119.29
2023-03-01T11:12:39.262Z,121.78
2023-03-01T11:13:39.605Z,122.75
2023-03-01T11:14:39.268Z,122.53
2023-03-01T11:15:39.279Z,120.88
2023-03-01T11:16:39.247Z,123.95
2023-03-01T11:17:53.147Z,123.07
2023-03-01T11:18:47.557Z,123.17
2023-03-01T11:19:40.662Z,123.24
2023-03-01T11:20:39.203Z,123.38
2023-03-01T11:21:39.222Z,124.39
2023-03-01T11:22:39.163Z,125.13
2023-03-01T11:23:39.153Z,126.93
2023-03-01T11:24:41.179Z,125.30
2023-03-01T11:25:39.187Z,106.75
2023-03-01T11:26:39.160Z,108.78
2023-03-01T11:27:40.088Z,111.02
2023-03-01T11:28:39.118Z,109.47
2023-03-01T11:29:48.611Z,106.40
2023-03-01T11:30:40.161Z,106.65
2023-03-01T11:31:44.151Z,107.40
2023-03-01T11:32:40.249Z,106.80
2023-03-01T11:33:39.103Z,108.42
2023-03-01T11:34:39.098Z,111.99
2023-03-01T11:35:39.072Z,116.15
2023-03-01T11:36:39.082Z,117.55
2023-03-01T11:37:39.078Z,117.73
2023-03-01T11:38:39.065Z,117.71
2023-03-01T11:39:39.060Z,121.39
2023-03-01T11:40:39.093Z,124.47
2023-03-01T11:41:39.049Z,124.92
2023-03-01T11:43:39.377Z,126.27
2023-03-01T11:44:39.109Z,126.20
2023-03-01T11:45:39.177Z,127.63
2023-03-01T11:46:39.258Z,128.06
2023-03-01T11:47:39.448Z,130.06
2023-03-01T11:48:48.746Z,131.09
2023-03-01T11:49:40.203Z,131.23
2023-03-01T11:50:39.185Z,131.57
2023-03-01T11:51:39.218Z,131.85
2023-03-01T11:52:39.177Z,132.70
2023-03-01T11:53:39.177Z,133.82
2023-03-01T11:54:39.210Z,134.11
2023-03-01T11:55:39.143Z,134.06
2023-03-01T11:56:39.158Z,136.06
2023-03-01T11:57:43.801Z,135.34
2023-03-01T11:58:40.150Z,135.46
2023-03-01T11:59:39.134Z,135.48
2023-03-01T12:00:39.140Z,136.01
2023-03-01T12:01:42.294Z,136.50
2023-03-01T12:02:39.095Z,141.49
2023-03-01T12:03:39.097Z,144.15
2023-03-01T12:04:39.203Z,146.16
2023-03-01T12:05:39.108Z,150.80
2023-03-01T12:06:39.062Z,154.68
2023-03-01T12:07:39.083Z,158.59
2023-03-01T12:08:39.084Z,160.94
2023-03-01T12:09:39.071Z,162.45
2023-03-01T12:10:39.053Z,160.69
2023-03-01T12:11:39.109Z,159.27
2023-03-01T12:12:39.057Z,157.87
2023-03-01T12:13:39.676Z,155.72
2023-03-01T12:14:39.065Z,136.87
2023-03-01T12:15:39.036Z,146.05
2023-03-01T12:16:39.855Z,150.83
2023-03-01T12:17:39.022Z,152.42
2023-03-01T12:18:39.022Z,152.51
2023-03-01T12:19:38.959Z,152.05
2023-03-01T12:20:39.219Z,154.42
2023-03-01T12:21:39.025Z,156.09
2023-03-01T12:22:38.990Z,156.46
2023-03-01T12:23:38.960Z,155.65
2023-03-01T12:24:38.935Z,155.64
2023-03-01T12:25:38.958Z,154.15
2023-03-01T12:26:38.942Z,153.22
2023-03-01T12:27:38.948Z,152.93
2023-03-01T12:28:38.928Z,154.09
2023-03-01T12:29:38.943Z,152.78
2023-03-01T12:30:39.187Z,152.50
2023-03-01T12:31:39.007Z,152.61
2023-03-01T12:32:38.968Z,151.71
2023-03-01T12:33:38.897Z,152.26
2023-03-01T12:34:38.869Z,152.54
2023-03-01T12:35:39.229Z,151.46
2023-03-01T12:36:38.879Z,152.98
2023-03-01T12:37:38.894Z,154.35
2023-03-01T12:38:38.894Z,156.17
2023-03-01T12:39:38.839Z,157.02
2023-03-01T12:40:38.861Z,157.85
2023-03-01T12:41:39.897Z,158.92
2023-03-01T12:42:38.819Z,159.91
2023-03-01T12:43:38.922Z,159.72
2023-03-01T12:44:38.864Z,161.25
2023-03-01T12:45:38.865Z,161.17
2023-03-01T12:46:38.785Z,161.51
2023-03-01T12:47:38.811Z,162.90
2023-03-01T12:48:38.840Z,164.06
2023-03-01T12:49:38.785Z,165.40
2023-03-01T12:50:38.773Z,164.60
2023-03-01T12:51:38.775Z,165.54
2023-03-01T12:52:38.819Z,165.92
2023-03-01T12:53:38.884Z,165.81
2023-03-01T12:54:38.917Z,166.76
2023-03-01T12:55:38.957Z,167.65
2023-03-01T12:56:39.036Z,167.09
2023-03-01T12:57:39.057Z,167.16
2023-03-01T12:58:49.277Z,167.97